Time;durP1;ratioP1;P1;durP2;ratioP2;P2;SDS_P1;SDS_P2;PMS_P1;PMS_P2;Temp;Humidity;BMP_temperature;BMP_pressure;BME280_temperature;BME280_humidity;BME280_pressure;Samples;Min_cycle;Max_cycle;Signal;HPM_P1;HPM_P2
2022/05/23 00:00:48;;;;;;;;;;;19.20;99.90;;;;;;5052758;28;19909;-75
2022/05/23 00:03:13;;;;;;;;;;;19.20;99.90;;;;;;5034971;28;19909;-77
2022/05/23 00:05:39;;;;;;;;;;;19.20;99.90;;;;;;5062943;28;20368;-75
2022/05/23 00:08:05;;;;;;;;;;;19.40;99.90;;;;;;5072820;28;19962;-75
2022/05/23 00:10:31;;;;;;;;;;;19.40;99.90;;;;;;5054587;28;20338;-75
2022/05/23 00:12:57;;;;;;;;;;;19.20;99.90;;;;;;5072740;28;19958;-77
2022/05/23 00:15:23;;;;;;;;;;;19.10;99.90;;;;;;5072575;28;19912;-76
2022/05/23 00:17:49;;;;;;;;;;;18.90;99.90;;;;;;5072688;28;19908;-74
2022/05/23 00:20:16;;;;;;;;;;;18.70;99.90;;;;;;5072741;28;19909;-77
2022/05/23 00:22:41;;;;;;;;;;;18.70;99.90;;;;;;5070691;28;20287;-75
2022/05/23 00:25:08;;;;;;;;;;;18.70;99.90;;;;;;5072296;28;19913;-74
2022/05/23 00:27:37;;;;;;;;;;;18.50;99.90;;;;;;5046112;28;20403;-75
2022/05/23 00:30:04;;;;;;;;;;;18.40;99.90;;;;;;5072604;28;19992;-74
2022/05/23 00:35:20;;;;;;;;;;;18.30;99.90;;;;;;5075903;28;19931;-74
2022/05/23 00:37:47;;;;;;;;;;;18.20;99.90;;;;;;5074842;28;20003;-76
2022/05/23 00:40:27;;;;;;;;;;;18.20;99.90;;;;;;5058143;28;20003;-77
2022/05/23 00:43:15;;;;;;;;;;;18.50;99.90;;;;;;5057985;28;19908;-75
2022/05/23 00:45:49;;;;;;;;;;;18.40;99.90;;;;;;5075947;28;19913;-75
2022/05/23 00:48:17;;;;;;;;;;;18.30;99.90;;;;;;5075481;28;19909;-76
2022/05/23 00:50:46;;;;;;;;;;;18.40;99.90;;;;;;5075960;28;19931;-76
2022/05/23 00:53:12;;;;;;;;;;;18.40;99.90;;;;;;5075801;28;19991;-74
2022/05/23 00:55:41;;;;;;;;;;;18.50;99.90;;;;;;5075492;28;19909;-75
2022/05/23 00:58:18;;;;;;;;;;;18.50;99.90;;;;;;5075311;28;19912;-74
2022/05/23 01:00:44;;;;;;;;;;;18.50;99.90;;;;;;5075776;28;19916;-75
2022/05/23 01:03:11;;;;;;;;;;;18.30;99.90;;;;;;5075742;28;20284;-75
2022/05/23 01:05:37;;;;;;;;;;;18.30;99.90;;;;;;5075496;28;19952;-77
2022/05/23 01:08:03;;;;;;;;;;;18.20;99.90;;;;;;5075192;28;19916;-75
2022/05/23 01:10:31;;;;;;;;;;;18.20;99.90;;;;;;5075464;28;19909;-75
2022/05/23 01:12:56;;;;;;;;;;;18.20;99.90;;;;;;5075483;28;20382;-75
2022/05/23 01:15:27;;;;;;;;;;;18.10;99.90;;;;;;5075428;28;19908;-75
2022/05/23 01:17:53;;;;;;;;;;;18.10;99.90;;;;;;5075024;28;19915;-75
2022/05/23 01:20:20;;;;;;;;;;;18.20;99.90;;;;;;5075343;28;19912;-74
2022/05/23 01:22:45;;;;;;;;;;;18.00;99.90;;;;;;5057304;28;19909;-74
2022/05/23 01:25:17;;;;;;;;;;;18.20;99.90;;;;;;5075203;28;19913;-76
2022/05/23 01:27:43;;;;;;;;;;;18.30;99.90;;;;;;5033904;28;19962;-74
2022/05/23 01:30:10;;;;;;;;;;;18.30;99.90;;;;;;5055076;28;19909;-75
2022/05/23 01:32:35;;;;;;;;;;;18.30;99.90;;;;;;5055008;28;19952;-76
2022/05/23 01:35:01;;;;;;;;;;;18.30;99.90;;;;;;5055130;28;19948;-75
2022/05/23 01:37:26;;;;;;;;;;;18.30;99.90;;;;;;5054289;28;19921;-75
2022/05/23 01:39:52;;;;;;;;;;;18.20;99.90;;;;;;5054947;28;20281;-74
2022/05/23 01:42:17;;;;;;;;;;;18.20;99.90;;;;;;5054813;28;19913;-74
2022/05/23 01:44:43;;;;;;;;;;;18.10;99.90;;;;;;5053992;28;19909;-74
2022/05/23 01:47:10;;;;;;;;;;;18.10;99.90;;;;;;5054359;28;20323;-75
2022/05/23 01:49:35;;;;;;;;;;;18.10;99.90;;;;;;5054780;28;19955;-77
2022/05/23 01:52:01;;;;;;;;;;;18.00;99.90;;;;;;5054759;28;19940;-75
2022/05/23 01:54:27;;;;;;;;;;;18.10;99.90;;;;;;5054511;28;20285;-75
2022/05/23 01:56:52;;;;;;;;;;;18.00;99.90;;;;;;5054370;28;19916;-75
2022/05/23 02:02:02;;;;;;;;;;;17.90;99.90;;;;;;5054293;28;20051;-75
2022/05/23 02:04:28;;;;;;;;;;;17.90;99.90;;;;;;5054489;28;19947;-76
2022/05/23 02:06:54;;;;;;;;;;;17.80;99.90;;;;;;5053949;28;19920;-77
2022/05/23 02:09:26;;;;;;;;;;;17.80;99.90;;;;;;5054421;28;19908;-76
2022/05/23 02:11:54;;;;;;;;;;;17.80;99.90;;;;;;5054589;28;19983;-75
2022/05/23 02:14:20;;;;;;;;;;;17.80;99.90;;;;;;5054266;28;20001;-75
2022/05/23 02:16:46;;;;;;;;;;;17.60;99.90;;;;;;5054158;28;20018;-74
2022/05/23 02:19:11;;;;;;;;;;;17.70;99.90;;;;;;5053857;28;19920;-75
2022/05/23 02:21:37;;;;;;;;;;;17.80;99.90;;;;;;5054145;28;19908;-76
2022/05/23 02:24:06;;;;;;;;;;;17.70;99.90;;;;;;5054143;28;19924;-76
2022/05/23 02:26:32;;;;;;;;;;;17.80;99.90;;;;;;5053969;28;19920;-75
2022/05/23 02:28:58;;;;;;;;;;;17.50;99.90;;;;;;5022403;28;19917;-75
2022/05/23 02:31:24;;;;;;;;;;;17.70;99.90;;;;;;5016023;28;19910;-76
2022/05/23 02:33:49;;;;;;;;;;;17.70;99.90;;;;;;5034105;28;20397;-74
2022/05/23 02:36:15;;;;;;;;;;;17.80;99.90;;;;;;5041528;28;19963;-75
2022/05/23 02:38:40;;;;;;;;;;;17.70;99.90;;;;;;5053405;28;19908;-74
2022/05/23 02:41:06;;;;;;;;;;;17.70;99.90;;;;;;5053816;28;19913;-76
2022/05/23 02:43:32;;;;;;;;;;;17.60;99.90;;;;;;5053515;28;20004;-76
2022/05/23 02:45:57;;;;;;;;;;;17.40;99.90;;;;;;5053649;28;19913;-76
2022/05/23 02:48:23;;;;;;;;;;;17.60;99.90;;;;;;5053190;28;19931;-77
2022/05/23 02:50:49;;;;;;;;;;;17.60;99.90;;;;;;5053738;28;19909;-76
2022/05/23 02:53:14;;;;;;;;;;;17.70;99.90;;;;;;5053623;28;19916;-73
2022/05/23 02:55:40;;;;;;;;;;;17.60;99.90;;;;;;5053522;28;20043;-76
2022/05/23 02:58:07;;;;;;;;;;;17.60;99.90;;;;;;5052963;28;19964;-76
2022/05/23 03:00:33;;;;;;;;;;;17.50;99.90;;;;;;5053460;28;19915;-76
2022/05/23 03:03:01;;;;;;;;;;;17.40;99.90;;;;;;5053534;28;19982;-74
2022/05/23 03:05:28;;;;;;;;;;;17.50;99.90;;;;;;5053213;28;19913;-76
2022/05/23 03:07:54;;;;;;;;;;;17.50;99.90;;;;;;5053183;28;20002;-77
2022/05/23 03:10:19;;;;;;;;;;;17.50;99.90;;;;;;5053319;28;20338;-76
2022/05/23 03:12:45;;;;;;;;;;;17.40;99.90;;;;;;5053336;28;19909;-76
2022/05/23 03:15:11;;;;;;;;;;;17.30;99.90;;;;;;5053285;28;20320;-76
2022/05/23 03:17:37;;;;;;;;;;;17.30;99.90;;;;;;5052915;28;19999;-76
2022/05/23 03:20:03;;;;;;;;;;;17.50;99.90;;;;;;5053291;28;19909;-76
2022/05/23 03:27:57;;;;;;;;;;;16.90;99.90;;;;;;5033927;28;20015;-75
2022/05/23 03:30:23;;;;;;;;;;;16.80;99.90;;;;;;5052977;28;20392;-76
2022/05/23 03:32:49;;;;;;;;;;;16.90;99.90;;;;;;5053134;28;19916;-74
2022/05/23 03:35:15;;;;;;;;;;;17.00;99.90;;;;;;5035233;28;19955;-75
2022/05/23 03:37:41;;;;;;;;;;;17.00;99.90;;;;;;5034851;28;19925;-74
2022/05/23 03:40:06;;;;;;;;;;;17.10;99.90;;;;;;5053127;28;19913;-76
2022/05/23 03:42:33;;;;;;;;;;;17.10;99.90;;;;;;5052804;28;19947;-77
2022/05/23 03:44:58;;;;;;;;;;;17.10;99.90;;;;;;5053058;28;19916;-75
2022/05/23 03:47:24;;;;;;;;;;;17.00;99.90;;;;;;5052676;28;20274;-75
2022/05/23 03:49:50;;;;;;;;;;;17.00;99.90;;;;;;5052975;28;20313;-77
2022/05/23 03:52:15;;;;;;;;;;;16.90;99.90;;;;;;5035096;28;19958;-76
2022/05/23 03:54:41;;;;;;;;;;;17.00;99.90;;;;;;5052698;28;19909;-74
2022/05/23 03:57:07;;;;;;;;;;;17.00;99.90;;;;;;5053067;28;19955;-75
2022/05/23 03:59:33;;;;;;;;;;;16.80;99.90;;;;;;5052598;28;19952;-77
2022/05/23 04:01:58;;;;;;;;;;;16.90;99.90;;;;;;5052866;28;19916;-75
2022/05/23 04:04:27;;;;;;;;;;;16.80;99.90;;;;;;5052862;28;19909;-75
2022/05/23 04:06:58;;;;;;;;;;;16.80;99.90;;;;;;5052844;28;19920;-74
2022/05/23 04:09:23;;;;;;;;;;;16.80;99.90;;;;;;5054821;28;20266;-74
2022/05/23 04:11:49;;;;;;;;;;;16.70;99.90;;;;;;5056511;28;19916;-74
2022/05/23 04:14:14;;;;;;;;;;;16.80;99.90;;;;;;5056697;28;19970;-75
2022/05/23 04:16:43;;;;;;;;;;;16.90;99.90;;;;;;5056479;28;19909;-76
2022/05/23 04:19:09;;;;;;;;;;;16.80;99.90;;;;;;5056060;28;19992;-76
2022/05/23 04:21:35;;;;;;;;;;;16.60;99.90;;;;;;5056433;28;19909;-75
2022/05/23 04:24:01;;;;;;;;;;;16.50;99.90;;;;;;5056427;28;19916;-74
2022/05/23 04:26:27;;;;;;;;;;;16.60;99.90;;;;;;5056323;28;19917;-74
2022/05/23 04:28:53;;;;;;;;;;;16.50;99.90;;;;;;5037233;28;19920;-77
2022/05/23 04:31:19;;;;;;;;;;;16.60;99.90;;;;;;5056042;28;20301;-75
2022/05/23 04:36:28;;;;;;;;;;;16.40;99.90;;;;;;5055911;28;19943;-75
2022/05/23 04:38:54;;;;;;;;;;;16.10;99.90;;;;;;5055590;28;20436;-74
2022/05/23 04:41:20;;;;;;;;;;;15.90;99.90;;;;;;5056175;28;19915;-74
2022/05/23 04:43:45;;;;;;;;;;;15.80;99.90;;;;;;5056009;28;19909;-75
2022/05/23 04:46:11;;;;;;;;;;;15.60;99.90;;;;;;5056089;28;19913;-75
2022/05/23 04:51:21;;;;;;;;;;;15.80;99.90;;;;;;5055813;28;19963;-76
2022/05/23 04:53:53;;;;;;;;;;;15.60;99.90;;;;;;5055719;28;19913;-73
2022/05/23 04:56:22;;;;;;;;;;;15.30;99.90;;;;;;5055876;28;19909;-73
2022/05/23 04:58:48;;;;;;;;;;;15.20;99.90;;;;;;5055316;28;20440;-75
2022/05/23 05:01:13;;;;;;;;;;;15.10;99.90;;;;;;5055742;28;19959;-75
2022/05/23 05:03:39;;;;;;;;;;;15.00;99.90;;;;;;5055641;28;19908;-76
2022/05/23 05:06:04;;;;;;;;;;;15.00;99.90;;;;;;5055464;28;19913;-77
2022/05/23 05:08:30;;;;;;;;;;;15.20;99.90;;;;;;5055291;28;20274;-75
2022/05/23 05:10:57;;;;;;;;;;;15.30;99.90;;;;;;5055411;28;19916;-77
2022/05/23 05:13:23;;;;;;;;;;;15.40;99.90;;;;;;5055552;28;19909;-77
2022/05/23 05:15:49;;;;;;;;;;;15.30;99.90;;;;;;5055377;28;20376;-76
2022/05/23 05:18:15;;;;;;;;;;;15.20;99.90;;;;;;5055078;28;19999;-76
2022/05/23 05:20:40;;;;;;;;;;;15.10;99.90;;;;;;5055338;28;19913;-76
2022/05/23 05:23:06;;;;;;;;;;;14.90;99.90;;;;;;5055206;28;19913;-73
2022/05/23 05:25:32;;;;;;;;;;;14.60;99.90;;;;;;5055349;28;19963;-74
2022/05/23 05:27:57;;;;;;;;;;;14.60;99.90;;;;;;5054754;28;19909;-77
2022/05/23 05:30:23;;;;;;;;;;;14.60;99.90;;;;;;5036547;28;19916;-76
2022/05/23 05:32:58;;;;;;;;;;;14.60;99.90;;;;;;5055282;28;19909;-74
2022/05/23 05:35:27;;;;;;;;;;;14.80;99.90;;;;;;5054690;28;19909;-74
2022/05/23 05:38:01;;;;;;;;;;;15.00;99.90;;;;;;5036577;28;20351;-75
2022/05/23 05:40:28;;;;;;;;;;;14.90;99.90;;;;;;5055195;28;19913;-74
2022/05/23 05:43:00;;;;;;;;;;;15.00;99.90;;;;;;5054490;28;19915;-74
2022/05/23 05:45:55;;;;;;;;;;;14.80;99.90;;;;;;5054720;28;20012;-76
2022/05/23 05:48:20;;;;;;;;;;;14.90;99.90;;;;;;5026972;28;19908;-75
2022/05/23 05:50:47;;;;;;;;;;;15.00;99.90;;;;;;5054806;28;20391;-74
2022/05/23 05:53:16;;;;;;;;;;;15.20;99.90;;;;;;5054624;28;19909;-75
2022/05/23 05:55:42;;;;;;;;;;;15.40;99.90;;;;;;5054623;28;19913;-74
2022/05/23 05:58:08;;;;;;;;;;;15.40;99.90;;;;;;5054065;28;20288;-77
2022/05/23 06:00:34;;;;;;;;;;;15.40;99.90;;;;;;5054575;28;19909;-74
2022/05/23 06:02:59;;;;;;;;;;;15.40;99.90;;;;;;5054449;28;19958;-74
2022/05/23 06:05:25;;;;;;;;;;;15.50;99.90;;;;;;5054416;28;20410;-75
2022/05/23 06:13:19;;;;;;;;;;;15.60;99.90;;;;;;5054064;28;19931;-76
2022/05/23 06:15:45;;;;;;;;;;;15.60;99.90;;;;;;5054396;28;20361;-76
2022/05/23 06:18:11;;;;;;;;;;;15.80;99.90;;;;;;5053817;28;19908;-75
2022/05/23 06:20:37;;;;;;;;;;;15.70;99.90;;;;;;5052976;28;20358;-77
2022/05/23 06:23:03;;;;;;;;;;;15.60;99.90;;;;;;5054276;28;19909;-75
2022/05/23 06:25:29;;;;;;;;;;;15.60;99.90;;;;;;5054109;28;20011;-75
2022/05/23 06:27:55;;;;;;;;;;;15.50;99.90;;;;;;5052552;28;19997;-75
2022/05/23 06:30:21;;;;;;;;;;;15.40;99.90;;;;;;5035013;28;20436;-75
2022/05/23 06:32:46;;;;;;;;;;;15.40;99.90;;;;;;5053616;28;19920;-74
2022/05/23 06:35:12;;;;;;;;;;;15.30;99.90;;;;;;5053864;28;20030;-75
2022/05/23 06:37:38;;;;;;;;;;;15.20;99.90;;;;;;5072651;28;20391;-76
2022/05/23 06:40:05;;;;;;;;;;;15.20;99.90;;;;;;5073275;28;20329;-75
2022/05/23 06:42:32;;;;;;;;;;;14.90;99.90;;;;;;5073577;28;20094;-74
2022/05/23 06:44:58;;;;;;;;;;;14.90;99.90;;;;;;5055658;28;20387;-77
2022/05/23 06:47:25;;;;;;;;;;;14.90;99.90;;;;;;5073618;28;19908;-75
2022/05/23 06:49:51;;;;;;;;;;;15.00;99.90;;;;;;5055320;28;19908;-74
2022/05/23 06:52:16;;;;;;;;;;;15.00;99.90;;;;;;5055624;28;20390;-74
2022/05/23 06:54:42;;;;;;;;;;;15.20;99.90;;;;;;5073613;28;19908;-73
2022/05/23 06:57:08;;;;;;;;;;;15.50;99.90;;;;;;5073196;28;20285;-74
2022/05/23 06:59:34;;;;;;;;;;;15.70;99.90;;;;;;5073138;28;19915;-76
2022/05/23 07:02:01;;;;;;;;;;;15.50;99.90;;;;;;5073571;28;19947;-75
2022/05/23 07:12:19;;;;;;;;;;;15.40;99.90;;;;;;5073420;28;19920;-77
2022/05/23 07:12:40;;;;;;;;;;;15.60;99.90;;;;;;5073357;28;20023;-75
2022/05/23 07:15:06;;;;;;;;;;;15.50;99.90;;;;;;5073379;28;20401;-76
2022/05/23 07:17:32;;;;;;;;;;;15.50;99.90;;;;;;5073237;28;19908;-76
2022/05/23 07:19:58;;;;;;;;;;;15.90;99.90;;;;;;5072952;28;19909;-76
2022/05/23 07:22:24;;;;;;;;;;;15.80;99.90;;;;;;5073220;28;19916;-76
2022/05/23 07:24:49;;;;;;;;;;;16.00;99.90;;;;;;5073204;28;20445;-75
2022/05/23 07:27:15;;;;;;;;;;;15.90;99.90;;;;;;5073188;28;19909;-75
2022/05/23 07:29:41;;;;;;;;;;;16.00;99.90;;;;;;5053653;28;19955;-74
2022/05/23 07:32:08;;;;;;;;;;;16.00;99.90;;;;;;5073201;28;19962;-75
2022/05/23 07:34:33;;;;;;;;;;;16.10;99.90;;;;;;5073179;28;19916;-75
2022/05/23 07:36:59;;;;;;;;;;;16.10;99.90;;;;;;5073035;28;20327;-75
2022/05/23 07:39:24;;;;;;;;;;;16.10;99.90;;;;;;5072724;28;19909;-76
2022/05/23 07:41:50;;;;;;;;;;;16.10;99.90;;;;;;5073079;28;20386;-76
2022/05/23 07:44:16;;;;;;;;;;;16.10;99.90;;;;;;5075521;28;19919;-74
2022/05/23 07:46:42;;;;;;;;;;;15.70;99.90;;;;;;5077103;28;19912;-74
2022/05/23 07:49:08;;;;;;;;;;;15.60;99.90;;;;;;5058791;28;20380;-73
2022/05/23 07:51:33;;;;;;;;;;;15.70;99.90;;;;;;5077065;28;19908;-75
2022/05/23 08:02:13;;;;;;;;;;;16.40;99.90;;;;;;5076693;28;19931;-74
2022/05/23 08:04:39;;;;;;;;;;;16.60;99.90;;;;;;5076826;28;19909;-75
2022/05/23 08:07:06;;;;;;;;;;;16.80;99.90;;;;;;5076211;28;20347;-74
2022/05/23 08:09:32;;;;;;;;;;;17.40;99.90;;;;;;5076248;28;19908;-74
2022/05/23 08:11:58;;;;;;;;;;;17.60;99.90;;;;;;5076636;28;19916;-74
2022/05/23 08:14:24;;;;;;;;;;;18.10;99.90;;;;;;5076605;28;19908;-76
2022/05/23 08:16:50;;;;;;;;;;;18.30;99.90;;;;;;5076578;28;19915;-77
2022/05/23 08:19:16;;;;;;;;;;;18.20;99.90;;;;;;5076083;28;19916;-76
2022/05/23 08:21:50;;;;;;;;;;;18.50;99.90;;;;;;5058476;28;19908;-76
2022/05/23 08:24:16;;;;;;;;;;;18.90;99.90;;;;;;5076488;28;19916;-75
2022/05/23 08:26:42;;;;;;;;;;;19.50;99.90;;;;;;5076292;28;19912;-76
2022/05/23 08:29:08;;;;;;;;;;;20.50;99.90;;;;;;5076041;28;19947;-76
2022/05/23 08:31:33;;;;;;;;;;;21.00;99.90;;;;;;5057079;28;19956;-75
2022/05/23 08:33:59;;;;;;;;;;;20.80;99.90;;;;;;5076248;28;19909;-73
2022/05/23 08:36:25;;;;;;;;;;;20.30;99.90;;;;;;5075413;28;19921;-75
2022/05/23 08:38:51;;;;;;;;;;;19.80;99.90;;;;;;5074582;28;19908;-76
2022/05/23 08:41:23;;;;;;;;;;;18.80;99.90;;;;;;5074996;28;19912;-75
2022/05/23 08:43:48;;;;;;;;;;;18.40;99.90;;;;;;5074843;28;20399;-75
2022/05/23 08:46:17;;;;;;;;;;;18.00;99.90;;;;;;5074864;28;19912;-74
2022/05/23 08:48:48;;;;;;;;;;;17.70;99.90;;;;;;5074451;28;19909;-76
2022/05/23 08:51:17;;;;;;;;;;;17.50;99.90;;;;;;5074935;28;19909;-74
2022/05/23 08:53:45;;;;;;;;;;;17.50;99.90;;;;;;5074460;28;20385;-75
2022/05/23 08:56:18;;;;;;;;;;;17.30;99.90;;;;;;5074633;28;19922;-75
2022/05/23 08:58:48;;;;;;;;;;;17.30;99.90;;;;;;5074357;28;19908;-76
2022/05/23 09:01:19;;;;;;;;;;;17.50;99.90;;;;;;5056707;28;19909;-75
2022/05/23 09:03:56;;;;;;;;;;;17.70;99.90;;;;;;5074568;28;19916;-75
2022/05/23 09:06:28;;;;;;;;;;;17.70;99.90;;;;;;5074396;28;19913;-75
2022/05/23 09:08:55;;;;;;;;;;;17.90;99.90;;;;;;5074179;28;19908;-74
2022/05/23 09:11:32;;;;;;;;;;;18.10;99.90;;;;;;5074487;28;19908;-75
2022/05/23 09:13:58;;;;;;;;;;;17.90;99.90;;;;;;5074435;28;19909;-74
2022/05/23 09:16:28;;;;;;;;;;;17.90;99.90;;;;;;5074490;28;20428;-76
2022/05/23 09:18:57;;;;;;;;;;;17.70;99.90;;;;;;5073876;28;19909;-76
2022/05/23 09:22:12;;;;;;;;;;;17.60;99.90;;;;;;5074418;28;19988;-75
2022/05/23 09:24:09;;;;;;;;;;;17.70;99.90;;;;;;5074048;28;20438;-75
2022/05/23 09:26:34;;;;;;;;;;;17.80;99.90;;;;;;5074157;28;19913;-76
2022/05/23 09:29:00;;;;;;;;;;;18.00;99.90;;;;;;5073872;28;19909;-75
2022/05/23 09:31:44;;;;;;;;;;;18.00;99.90;;;;;;5054766;28;19916;-76
2022/05/23 09:34:28;;;;;;;;;;;18.20;99.90;;;;;;5074166;28;19970;-76
2022/05/23 09:36:54;;;;;;;;;;;18.30;99.90;;;;;;4997406;28;2178489;-76
2022/05/23 09:39:26;;;;;;;;;;;18.60;99.90;;;;;;5074948;28;20014;-76
2022/05/23 09:47:48;;;;;;;;;;;20.90;99.90;;;;;;5074597;28;19938;-76
2022/05/23 09:50:26;;;;;;;;;;;22.00;99.90;;;;;;5056301;28;20322;-76
2022/05/23 09:52:54;;;;;;;;;;;22.40;99.90;;;;;;5074793;28;19909;-74
2022/05/23 09:55:28;;;;;;;;;;;22.80;99.90;;;;;;5074617;28;19954;-75
2022/05/23 09:57:54;;;;;;;;;;;23.30;99.90;;;;;;5056459;28;19909;-76
2022/05/23 10:00:23;;;;;;;;;;;23.80;99.90;;;;;;5074476;28;19930;-74
2022/05/23 10:02:53;;;;;;;;;;;24.90;99.70;;;;;;5074521;28;19909;-77
2022/05/23 10:05:24;;;;;;;;;;;24.90;92.20;;;;;;5074284;28;19956;-76
2022/05/23 10:07:51;;;;;;;;;;;25.20;94.00;;;;;;5055986;28;19908;-77
2022/05/23 10:10:21;;;;;;;;;;;26.30;92.50;;;;;;5055982;28;19920;-77
2022/05/23 10:12:48;;;;;;;;;;;26.80;89.60;;;;;;5074314;28;19913;-75
2022/05/23 10:15:19;;;;;;;;;;;26.70;85.80;;;;;;5056448;28;20000;-75
2022/05/23 10:17:57;;;;;;;;;;;28.30;78.70;;;;;;5072720;28;19999;-75
2022/05/23 10:20:28;;;;;;;;;;;29.90;75.70;;;;;;5073819;28;20372;-76
2022/05/23 10:22:55;;;;;;;;;;;32.10;66.00;;;;;;5074179;28;19909;-76
2022/05/23 10:25:20;;;;;;;;;;;31.00;64.70;;;;;;5074083;28;19949;-75
2022/05/23 10:27:56;;;;;;;;;;;31.40;64.90;;;;;;5074164;28;20382;-75
2022/05/23 10:30:23;;;;;;;;;;;31.60;62.40;;;;;;5050715;28;19951;-76
2022/05/23 10:32:52;;;;;;;;;;;31.00;61.30;;;;;;5054099;28;19909;-75
2022/05/23 10:35:17;;;;;;;;;;;30.70;61.10;;;;;;5053948;28;19909;-77
2022/05/23 10:37:44;;;;;;;;;;;31.20;61.00;;;;;;5035903;28;20442;-77
2022/05/23 10:42:55;;;;;;;;;;;32.90;56.40;;;;;;5053894;28;19923;-77
2022/05/23 10:45:37;;;;;;;;;;;32.50;57.20;;;;;;5035745;28;19913;-76
2022/05/23 10:48:21;;;;;;;;;;;31.70;55.70;;;;;;5053676;28;19909;-76
2022/05/23 10:50:50;;;;;;;;;;;32.00;53.80;;;;;;5053297;28;19948;-76
2022/05/23 10:53:15;;;;;;;;;;;33.20;54.70;;;;;;5053531;28;20358;-76
2022/05/23 10:55:41;;;;;;;;;;;33.40;54.00;;;;;;5053611;28;19909;-78
2022/05/23 10:58:29;;;;;;;;;;;32.50;53.10;;;;;;5053558;28;19920;-78
2022/05/23 11:01:13;;;;;;;;;;;32.80;54.40;;;;;;5053108;28;19909;-76
2022/05/23 11:03:44;;;;;;;;;;;32.30;53.70;;;;;;5053447;28;20012;-76
2022/05/23 11:06:17;;;;;;;;;;;31.70;53.50;;;;;;5053372;28;19912;-77
2022/05/23 11:08:51;;;;;;;;;;;30.10;56.30;;;;;;5053438;28;20008;-76
2022/05/23 11:11:23;;;;;;;;;;;29.50;57.60;;;;;;5053276;28;20439;-76
2022/05/23 11:13:58;;;;;;;;;;;30.20;57.90;;;;;;5053511;28;19999;-75
2022/05/23 11:16:32;;;;;;;;;;;31.50;55.40;;;;;;5053407;28;19909;-77
2022/05/23 11:19:07;;;;;;;;;;;33.50;54.60;;;;;;5052690;28;19916;-76
2022/05/23 11:21:36;;;;;;;;;;;34.90;51.70;;;;;;5053249;28;19909;-75
2022/05/23 11:24:06;;;;;;;;;;;35.80;50.50;;;;;;5053335;28;19916;-77
2022/05/23 11:26:47;;;;;;;;;;;35.20;48.80;;;;;;5053124;28;20385;-77
2022/05/23 11:35:07;;;;;;;;;;;30.90;52.70;;;;;;5073503;28;20376;-75
2022/05/23 11:37:49;;;;;;;;;;;29.90;54.40;;;;;;5008826;28;19943;-75
2022/05/23 11:40:35;;;;;;;;;;;29.70;55.90;;;;;;5052747;28;19944;-75
2022/05/23 11:43:02;;;;;;;;;;;28.60;56.70;;;;;;5048876;28;19955;-77
2022/05/23 11:48:40;;;;;;;;;;;27.50;58.40;;;;;;5053056;28;19920;-77
2022/05/23 11:51:21;;;;;;;;;;;27.70;61.00;;;;;;5052594;28;19909;-77
2022/05/23 11:53:53;;;;;;;;;;;30.50;57.80;;;;;;5052959;28;19940;-77
2022/05/23 11:56:31;;;;;;;;;;;32.00;52.40;;;;;;5051652;28;19940;-76
2022/05/23 11:58:57;;;;;;;;;;;31.80;52.60;;;;;;5051549;28;19960;-77
2022/05/23 12:01:26;;;;;;;;;;;30.80;53.70;;;;;;5052843;28;19944;-75
2022/05/23 12:03:54;;;;;;;;;;;30.20;54.70;;;;;;5051790;28;19917;-77
2022/05/23 12:06:23;;;;;;;;;;;31.20;54.10;;;;;;5051373;28;19913;-76
2022/05/23 12:08:58;;;;;;;;;;;32.90;52.60;;;;;;5052804;28;19909;-76
2022/05/23 12:11:24;;;;;;;;;;;34.90;50.10;;;;;;5051206;28;20007;-77
2022/05/23 12:13:51;;;;;;;;;;;37.00;48.30;;;;;;5052805;28;19915;-78
2022/05/23 12:16:35;;;;;;;;;;;37.00;45.40;;;;;;5052783;28;19913;-75
2022/05/23 12:19:13;;;;;;;;;;;35.60;47.50;;;;;;5052684;28;19944;-75
2022/05/23 12:21:41;;;;;;;;;;;35.10;47.80;;;;;;5052677;28;19913;-77
2022/05/23 12:24:21;;;;;;;;;;;35.00;47.70;;;;;;5052758;28;19908;-78
2022/05/23 12:26:52;;;;;;;;;;;34.10;47.40;;;;;;5052396;28;19924;-75
2022/05/23 12:29:24;;;;;;;;;;;33.00;49.60;;;;;;5053069;28;19909;-75
2022/05/23 12:32:07;;;;;;;;;;;32.30;49.70;;;;;;5037252;28;19923;-77
2022/05/23 12:34:40;;;;;;;;;;;30.80;51.50;;;;;;5056523;28;19909;-75
2022/05/23 12:37:11;;;;;;;;;;;31.50;50.10;;;;;;5070816;28;19921;-77
2022/05/23 12:39:39;;;;;;;;;;;31.40;49.70;;;;;;5071835;28;19916;-78
2022/05/23 12:42:12;;;;;;;;;;;29.90;52.00;;;;;;5056016;28;19916;-77
2022/05/23 12:44:45;;;;;;;;;;;29.00;53.30;;;;;;5038254;28;19916;-75
2022/05/23 12:47:32;;;;;;;;;;;28.20;53.70;;;;;;5055904;28;20392;-75
2022/05/23 12:50:05;;;;;;;;;;;27.60;54.80;;;;;;5055640;28;19916;-74
2022/05/23 12:52:30;;;;;;;;;;;28.30;55.80;;;;;;5055965;28;20369;-78
2022/05/23 12:55:05;;;;;;;;;;;28.70;55.20;;;;;;5055683;28;19909;-76
2022/05/23 12:57:34;;;;;;;;;;;29.00;53.50;;;;;;5055830;28;20014;-74
2022/05/23 12:59:59;;;;;;;;;;;29.80;52.80;;;;;;5037505;28;19909;-74
2022/05/23 13:02:38;;;;;;;;;;;29.30;51.60;;;;;;5055830;28;20342;-74
2022/05/23 13:05:06;;;;;;;;;;;29.00;52.50;;;;;;5055661;28;19909;-75
2022/05/23 13:07:32;;;;;;;;;;;28.40;53.20;;;;;;5037455;28;19909;-78
2022/05/23 13:10:06;;;;;;;;;;;27.40;54.50;;;;;;5055320;28;19909;-75
2022/05/23 13:12:44;;;;;;;;;;;26.30;56.90;;;;;;5055568;28;19990;-76
2022/05/23 13:15:10;;;;;;;;;;;26.20;57.50;;;;;;5055861;28;19909;-76
2022/05/23 13:17:45;;;;;;;;;;;26.50;57.80;;;;;;5055448;28;19912;-74
2022/05/23 13:23:09;;;;;;;;;;;25.30;57.60;;;;;;5055504;28;20133;-76
2022/05/23 13:25:36;;;;;;;;;;;25.00;58.70;;;;;;5055317;28;19913;-75
2022/05/23 13:28:06;;;;;;;;;;;24.70;59.20;;;;;;5055233;28;19930;-74
2022/05/23 13:30:35;;;;;;;;;;;24.20;61.30;;;;;;5035831;28;20368;-74
2022/05/23 13:33:09;;;;;;;;;;;23.70;62.50;;;;;;5055208;28;19990;-77
2022/05/23 13:35:36;;;;;;;;;;;23.10;65.00;;;;;;5054932;28;20392;-74
2022/05/23 13:38:25;;;;;;;;;;;22.50;69.20;;;;;;5055117;28;19913;-75
2022/05/23 13:40:53;;;;;;;;;;;22.10;74.00;;;;;;5045115;28;19916;-76
2022/05/23 13:43:20;;;;;;;;;;;20.40;99.90;;;;;;5054519;28;19916;-76
2022/05/23 13:45:48;;;;;;;;;;;18.70;99.90;;;;;;5054881;28;20008;-75
2022/05/23 13:48:17;;;;;;;;;;;18.30;99.90;;;;;;5054939;28;19909;-74
2022/05/23 13:50:49;;;;;;;;;;;18.20;99.90;;;;;;5054438;28;19909;-75
2022/05/23 13:53:25;;;;;;;;;;;18.20;99.90;;;;;;5054936;28;19967;-76
2022/05/23 13:55:51;;;;;;;;;;;18.40;99.90;;;;;;5054731;28;19909;-76
2022/05/23 13:58:16;;;;;;;;;;;18.90;99.90;;;;;;5054736;28;20015;-75
2022/05/23 14:00:51;;;;;;;;;;;19.60;99.90;;;;;;5054276;28;19959;-75
2022/05/23 14:03:17;;;;;;;;;;;20.00;99.90;;;;;;5054702;28;19913;-74
2022/05/23 14:05:44;;;;;;;;;;;20.00;99.90;;;;;;5054426;28;20498;-76
2022/05/23 14:08:10;;;;;;;;;;;19.80;99.90;;;;;;5054548;28;19913;-77
2022/05/23 14:10:37;;;;;;;;;;;19.70;99.90;;;;;;5054076;28;19909;-76
2022/05/23 14:13:03;;;;;;;;;;;19.70;99.90;;;;;;5054364;28;20392;-75
2022/05/23 14:15:30;;;;;;;;;;;19.80;99.90;;;;;;5054158;28;20018;-75
2022/05/23 14:17:58;;;;;;;;;;;19.30;99.90;;;;;;5054188;28;20292;-76
2022/05/23 14:20:30;;;;;;;;;;;19.30;99.90;;;;;;5053930;28;19909;-75
2022/05/23 14:23:00;;;;;;;;;;;19.00;99.90;;;;;;5054217;28;19916;-74
2022/05/23 14:25:29;;;;;;;;;;;19.60;99.90;;;;;;5054123;28;20355;-75
2022/05/23 14:27:55;;;;;;;;;;;19.50;99.90;;;;;;5054078;28;20254;-75
2022/05/23 14:30:23;;;;;;;;;;;19.20;99.90;;;;;;5053638;28;19916;-75
2022/05/23 14:32:57;;;;;;;;;;;18.90;99.90;;;;;;5035684;28;20304;-76
2022/05/23 14:35:26;;;;;;;;;;;19.00;99.90;;;;;;5036018;28;19916;-76
2022/05/23 14:37:53;;;;;;;;;;;19.20;99.90;;;;;;5052591;28;19909;-74
2022/05/23 14:40:37;;;;;;;;;;;19.20;99.90;;;;;;5053551;28;19963;-75
2022/05/23 14:43:06;;;;;;;;;;;19.50;99.90;;;;;;5053608;28;19908;-75
2022/05/23 14:45:32;;;;;;;;;;;20.60;99.90;;;;;;5053735;28;19920;-76
2022/05/23 14:47:59;;;;;;;;;;;21.30;99.90;;;;;;5053746;28;19909;-75
2022/05/23 14:50:31;;;;;;;;;;;21.30;99.90;;;;;;5053377;28;19910;-76
2022/05/23 14:55:45;;;;;;;;;;;21.00;99.90;;;;;;5053436;28;20002;-75
2022/05/23 15:00:59;;;;;;;;;;;23.10;97.20;;;;;;5053026;28;20301;-76
2022/05/23 15:03:27;;;;;;;;;;;23.60;97.00;;;;;;5053496;28;19909;-75
2022/05/23 15:05:54;;;;;;;;;;;24.40;93.20;;;;;;5035460;28;20331;-75
2022/05/23 15:08:20;;;;;;;;;;;23.40;92.60;;;;;;5053469;28;20365;-77
2022/05/23 15:10:46;;;;;;;;;;;22.80;94.70;;;;;;5053096;28;20419;-74
2022/05/23 15:13:12;;;;;;;;;;;21.80;97.00;;;;;;5035487;28;20011;-74
2022/05/23 15:15:38;;;;;;;;;;;21.70;99.90;;;;;;5053365;28;19915;-74
2022/05/23 15:18:04;;;;;;;;;;;21.70;99.90;;;;;;5053275;28;20003;-76
2022/05/23 15:20:30;;;;;;;;;;;21.60;99.90;;;;;;5053102;28;19909;-74
2022/05/23 15:22:56;;;;;;;;;;;21.30;99.90;;;;;;5053447;28;19909;-74
2022/05/23 15:25:22;;;;;;;;;;;21.10;99.90;;;;;;5053113;28;19913;-74